createdAt,value
2022-10-20T00:01:42.289Z,6.15
2022-10-20T00:04:31.189Z,6.14
2022-10-20T00:07:18.872Z,6.14
2022-10-20T00:10:07.571Z,6.14
2022-10-20T00:12:55.054Z,6.16
2022-10-20T00:15:49.962Z,6.22
2022-10-20T00:18:37.865Z,6.22
2022-10-20T00:21:29.642Z,6.14
2022-10-20T00:24:17.153Z,6.16
2022-10-20T00:27:04.933Z,6.12
2022-10-20T00:29:52.588Z,6.10
2022-10-20T00:32:40.108Z,6.08
2022-10-20T00:35:28.076Z,6.07
2022-10-20T00:41:13.648Z,6.06
2022-10-20T00:44:03.789Z,6.05
2022-10-20T00:46:51.174Z,6.04
2022-10-20T00:49:39.220Z,6.01
2022-10-20T00:52:27.205Z,5.97
2022-10-20T00:55:21.941Z,5.97
2022-10-20T00:58:10.405Z,5.96
2022-10-20T01:01:00.909Z,5.96
2022-10-20T01:03:52.171Z,5.92
2022-10-20T01:06:41.313Z,5.88
2022-10-20T01:09:30.011Z,5.86
2022-10-20T01:12:30.298Z,5.83
2022-10-20T01:15:31.212Z,5.81
2022-10-20T01:18:27.131Z,5.77
2022-10-20T01:21:54.194Z,5.74
2022-10-20T01:24:56.755Z,5.71
2022-10-20T01:27:48.512Z,5.67
2022-10-20T01:30:47.064Z,5.64
2022-10-20T01:33:44.892Z,5.62
2022-10-20T01:36:40.290Z,5.57
2022-10-20T01:39:37.782Z,5.52
2022-10-20T01:42:29.654Z,5.50
2022-10-20T01:45:24.407Z,5.50
2022-10-20T01:48:20.599Z,5.48
2022-10-20T01:51:10.930Z,5.45
2022-10-20T01:53:59.978Z,5.44
2022-10-20T01:57:09.722Z,5.40
2022-10-20T02:00:08.995Z,5.37
2022-10-20T02:03:26.622Z,5.36
2022-10-20T02:06:44.864Z,5.35
2022-10-20T02:09:44.396Z,5.32
2022-10-20T02:12:45.481Z,5.29
2022-10-20T02:15:40.127Z,5.25
2022-10-20T02:18:34.876Z,5.24
2022-10-20T02:21:22.607Z,5.23
2022-10-20T02:24:11.509Z,5.21
2022-10-20T02:27:04.829Z,5.18
2022-10-20T02:29:58.298Z,5.18
2022-10-20T02:32:50.195Z,5.17
2022-10-20T02:35:43.205Z,5.20
2022-10-20T02:38:31.050Z,5.17
2022-10-20T02:41:22.119Z,5.21
2022-10-20T02:44:10.062Z,5.17
2022-10-20T02:46:57.468Z,5.16
2022-10-20T02:49:48.710Z,5.15
2022-10-20T02:52:38.051Z,5.21
2022-10-20T02:55:28.722Z,5.17
2022-10-20T02:58:16.243Z,5.14
2022-10-20T03:01:05.749Z,5.12
2022-10-20T03:03:58.675Z,5.12
2022-10-20T03:06:46.514Z,5.15
2022-10-20T03:09:35.416Z,5.14
2022-10-20T03:12:23.366Z,5.19
2022-10-20T03:15:11.872Z,5.13
2022-10-20T03:18:01.232Z,5.15
2022-10-20T03:20:51.843Z,5.16
2022-10-20T03:23:39.463Z,5.14
2022-10-20T03:26:28.434Z,5.12
2022-10-20T03:29:16.450Z,5.14
2022-10-20T03:32:06.194Z,5.09
2022-10-20T03:35:01.405Z,5.08
2022-10-20T03:37:50.888Z,5.07
2022-10-20T03:40:42.921Z,5.06
2022-10-20T03:43:32.413Z,5.08
2022-10-20T03:46:19.967Z,5.05
2022-10-20T03:49:07.451Z,5.07
2022-10-20T03:52:11.171Z,5.05
2022-10-20T03:54:59.352Z,5.04
2022-10-20T03:57:47.650Z,5.05
2022-10-20T04:00:44.621Z,5.05
2022-10-20T04:03:34.658Z,5.01
2022-10-20T04:06:22.542Z,5.00
2022-10-20T04:09:10.362Z,4.96
2022-10-20T04:11:58.296Z,4.94
2022-10-20T04:15:06.714Z,4.92
2022-10-20T04:17:58.396Z,4.91
2022-10-20T04:20:46.621Z,4.89
2022-10-20T04:23:34.589Z,4.88
2022-10-20T04:26:25.687Z,4.85
2022-10-20T04:29:32.112Z,4.85
2022-10-20T04:32:20.988Z,4.83
2022-10-20T04:35:35.592Z,4.84
2022-10-20T04:38:27.186Z,4.80
2022-10-20T04:41:14.621Z,4.81
2022-10-20T04:44:02.680Z,4.78
2022-10-20T04:46:50.428Z,4.77
2022-10-20T04:49:38.121Z,4.76
2022-10-20T04:52:26.992Z,4.77
2022-10-20T04:55:15.032Z,4.78
2022-10-20T04:58:02.825Z,4.83
2022-10-20T05:00:50.404Z,4.81
2022-10-20T05:03:38.560Z,4.85
2022-10-20T05:06:29.067Z,4.77
2022-10-20T05:09:18.535Z,4.76
2022-10-20T05:12:06.413Z,4.78
2022-10-20T05:14:53.835Z,4.76
2022-10-20T05:17:41.472Z,4.83
2022-10-20T05:20:33.517Z,4.73
2022-10-20T05:23:28.706Z,4.75
2022-10-20T05:26:19.693Z,4.77
2022-10-20T05:29:14.586Z,4.72
2022-10-20T05:32:05.231Z,4.69
2022-10-20T05:35:03.028Z,4.67
2022-10-20T05:37:51.161Z,4.64
2022-10-20T05:40:38.902Z,4.65
2022-10-20T05:43:27.620Z,4.65
2022-10-20T05:46:15.230Z,4.64
2022-10-20T05:49:04.657Z,4.64
2022-10-20T05:51:52.589Z,4.70
2022-10-20T05:54:40.087Z,4.68
2022-10-20T05:57:27.539Z,4.70
2022-10-20T06:00:18.699Z,4.75
2022-10-20T06:03:06.562Z,4.72
2022-10-20T06:05:59.019Z,4.73
2022-10-20T06:08:46.764Z,4.73
2022-10-20T06:11:38.321Z,4.80
2022-10-20T06:14:27.049Z,4.88
2022-10-20T06:17:16.257Z,4.87
2022-10-20T06:20:03.982Z,4.91
2022-10-20T06:22:51.285Z,4.92
2022-10-20T06:25:38.994Z,4.91
2022-10-20T06:28:26.484Z,4.98
2022-10-20T06:31:17.199Z,5.06
2022-10-20T06:34:09.524Z,5.08
2022-10-20T06:36:57.233Z,5.10
2022-10-20T06:39:44.557Z,5.19
2022-10-20T06:42:32.275Z,5.27
2022-10-20T06:45:20.092Z,5.26
2022-10-20T06:48:07.902Z,5.35
2022-10-20T06:51:00.677Z,5.38
2022-10-20T06:53:48.211Z,5.50
2022-10-20T06:56:38.060Z,5.49
2022-10-20T06:59:28.089Z,5.58
2022-10-20T07:02:16.282Z,5.70
2022-10-20T07:05:04.894Z,5.80
2022-10-20T07:07:55.458Z,5.89
2022-10-20T07:10:42.808Z,5.92
2022-10-20T07:13:32.488Z,6.09
2022-10-20T07:16:23.480Z,6.10
2022-10-20T07:19:11.227Z,6.17
2022-10-20T07:21:59.474Z,6.22
2022-10-20T07:24:51.241Z,6.36
2022-10-20T07:27:38.898Z,6.48
2022-10-20T07:30:26.360Z,6.63
2022-10-20T07:33:13.922Z,6.70
2022-10-20T07:36:01.993Z,6.91
2022-10-20T07:38:49.990Z,7.04
2022-10-20T07:41:43.875Z,7.10
2022-10-20T07:44:31.469Z,7.27
2022-10-20T07:47:19.102Z,7.36
2022-10-20T07:50:07.981Z,7.42
2022-10-20T07:52:55.801Z,7.57
2022-10-20T07:55:43.304Z,7.79
2022-10-20T07:58:32.741Z,8.04
2022-10-20T08:01:20.619Z,8.04
2022-10-20T08:04:08.524Z,8.17
2022-10-20T08:06:56.024Z,8.32
2022-10-20T08:12:36.730Z,8.63
2022-10-20T08:15:25.831Z,8.61
2022-10-20T08:18:16.919Z,8.68
2022-10-20T08:21:10.585Z,8.72
2022-10-20T08:23:58.229Z,8.75
2022-10-20T08:26:45.517Z,8.93
2022-10-20T08:29:35.693Z,9.10
2022-10-20T08:32:24.829Z,9.28
2022-10-20T08:35:12.800Z,9.43
2022-10-20T08:38:01.533Z,9.71
2022-10-20T08:40:48.877Z,10.00
2022-10-20T08:43:42.847Z,10.19
2022-10-20T08:46:34.479Z,10.25
2022-10-20T08:49:27.507Z,10.38
2022-10-20T08:52:18.850Z,10.44
2022-10-20T08:55:28.373Z,10.63
2022-10-20T08:58:20.721Z,10.70
2022-10-20T09:01:21.169Z,10.87
2022-10-20T09:04:26.882Z,11.14
2022-10-20T09:07:26.907Z,11.25
2022-10-20T09:10:30.046Z,11.36
2022-10-20T09:13:24.586Z,11.37
2022-10-20T09:21:31.748Z,11.49
2022-10-20T09:28:21.656Z,11.68
2022-10-20T09:31:34.364Z,11.96
2022-10-20T09:34:28.024Z,11.98
2022-10-20T09:37:20.988Z,12.15
2022-10-20T09:40:16.239Z,12.18
2022-10-20T09:43:12.323Z,12.35
2022-10-20T09:46:08.025Z,12.50
2022-10-20T09:48:57.323Z,12.53
2022-10-20T09:51:49.267Z,12.67
2022-10-20T09:54:38.867Z,12.96
2022-10-20T09:57:26.846Z,13.09
2022-10-20T10:00:36.715Z,13.13
2022-10-20T10:03:25.645Z,13.25
2022-10-20T10:06:32.793Z,13.56
2022-10-20T10:09:32.538Z,13.74
2022-10-20T10:12:21.806Z,13.76
2022-10-20T10:15:30.564Z,13.81
2022-10-20T10:18:39.357Z,14.14
2022-10-20T10:21:34.083Z,14.29
2022-10-20T10:24:46.379Z,14.44
2022-10-20T10:27:39.079Z,14.55
2022-10-20T10:30:34.292Z,14.33
2022-10-20T10:33:33.036Z,14.36
2022-10-20T10:36:42.829Z,14.62
2022-10-20T10:40:50.514Z,14.77
2022-10-20T10:43:18.749Z,14.69
2022-10-20T10:46:09.543Z,14.94
2022-10-20T10:49:29.240Z,15.06
2022-10-20T10:52:42.968Z,15.18
2022-10-20T10:55:54.660Z,15.13
2022-10-20T10:58:53.317Z,15.44
2022-10-20T11:02:03.769Z,15.69
2022-10-20T11:05:25.771Z,15.74
2022-10-20T11:08:41.590Z,16.01
2022-10-20T11:11:44.423Z,15.78
2022-10-20T11:14:51.022Z,15.69
2022-10-20T11:17:59.794Z,15.82
2022-10-20T11:21:24.278Z,15.99
2022-10-20T11:25:04.632Z,16.09
2022-10-20T11:27:52.826Z,16.07
2022-10-20T11:30:41.819Z,15.99
2022-10-20T11:33:46.667Z,16.74
2022-10-20T11:36:41.456Z,16.69
2022-10-20T11:39:40.498Z,16.24
2022-10-20T11:42:41.846Z,16.42
2022-10-20T11:45:50.461Z,16.46
2022-10-20T11:48:45.423Z,16.28
2022-10-20T11:52:22.062Z,16.82
2022-10-20T11:55:50.323Z,16.99
2022-10-20T11:59:21.081Z,16.80
2022-10-20T12:02:54.317Z,16.76
2022-10-20T12:06:34.037Z,16.41
2022-10-20T12:10:03.425Z,16.28
2022-10-20T12:13:06.707Z,16.29
2022-10-20T12:15:55.195Z,16.78
2022-10-20T12:19:16.355Z,16.84
2022-10-20T12:22:08.339Z,16.92
2022-10-20T12:25:39.693Z,17.06
2022-10-20T12:28:43.962Z,17.40
2022-10-20T12:32:24.917Z,17.68
2022-10-20T12:35:59.470Z,17.84
2022-10-20T12:38:52.204Z,17.46
2022-10-20T12:41:56.177Z,17.34
2022-10-20T12:44:47.684Z,17.12
2022-10-20T12:47:39.561Z,16.93
2022-10-20T12:50:38.345Z,17.02
2022-10-20T12:53:30.864Z,17.42
2022-10-20T12:56:22.341Z,17.42
2022-10-20T12:59:40.072Z,17.43
2022-10-20T13:02:52.645Z,17.25
2022-10-20T13:05:47.124Z,17.07
2022-10-20T13:08:37.116Z,16.81
2022-10-20T13:11:54.944Z,16.98
2022-10-20T13:14:57.532Z,17.41
2022-10-20T13:17:58.723Z,17.33
2022-10-20T13:20:55.437Z,17.53
2022-10-20T13:23:49.032Z,17.48
2022-10-20T13:26:48.477Z,17.16
2022-10-20T13:29:44.617Z,16.97
2022-10-20T13:32:53.834Z,17.01
2022-10-20T13:36:05.933Z,16.95
2022-10-20T13:39:03.152Z,16.97
2022-10-20T13:42:06.392Z,17.03
2022-10-20T13:45:08.456Z,17.33
2022-10-20T13:48:14.348Z,17.40
2022-10-20T13:51:13.321Z,17.43
2022-10-20T13:54:07.309Z,17.14
2022-10-20T13:56:56.159Z,17.09
2022-10-20T13:59:58.307Z,17.31
2022-10-20T14:02:59.863Z,17.01
2022-10-20T14:05:47.191Z,17.10
2022-10-20T14:08:47.304Z,16.95
2022-10-20T14:11:44.029Z,16.97
2022-10-20T14:14:34.711Z,16.90
2022-10-20T14:17:29.042Z,16.90
2022-10-20T14:20:23.265Z,16.65
2022-10-20T14:23:17.498Z,16.50
2022-10-20T14:26:24.363Z,16.49
2022-10-20T14:29:18.339Z,16.72
2022-10-20T14:32:07.607Z,16.64
2022-10-20T14:34:59.643Z,16.38
2022-10-20T14:38:06.042Z,16.53
2022-10-20T14:40:56.787Z,16.61
2022-10-20T14:43:49.871Z,16.74
2022-10-20T14:46:40.945Z,16.47
2022-10-20T14:49:35.594Z,16.33
2022-10-20T14:52:31.547Z,16.14
2022-10-20T14:55:43.406Z,16.19
2022-10-20T14:58:43.222Z,16.04
2022-10-20T15:01:36.629Z,16.11
2022-10-20T15:04:30.005Z,16.18
2022-10-20T15:07:24.559Z,16.42
2022-10-20T15:10:19.026Z,16.39
2022-10-20T15:13:06.862Z,16.42
2022-10-20T15:15:55.076Z,16.55
2022-10-20T15:18:45.187Z,16.42
2022-10-20T15:21:32.586Z,16.16
2022-10-20T15:24:20.353Z,15.91
2022-10-20T15:27:15.983Z,15.96
2022-10-20T15:30:03.505Z,16.02
2022-10-20T15:32:51.823Z,16.12
2022-10-20T15:35:44.824Z,15.97
2022-10-20T15:38:32.079Z,15.71
2022-10-20T15:41:23.472Z,15.47
2022-10-20T15:44:17.459Z,15.31
2022-10-20T15:47:05.029Z,15.25
2022-10-20T15:49:52.828Z,15.45
2022-10-20T15:52:49.601Z,15.52
2022-10-20T15:55:42.764Z,15.54
2022-10-20T15:58:30.529Z,15.53
2022-10-20T16:01:21.101Z,15.44
2022-10-20T16:04:19.224Z,15.42
2022-10-20T16:07:06.646Z,15.40
2022-10-20T16:09:55.517Z,15.32
2022-10-20T16:12:43.747Z,15.28
2022-10-20T16:15:31.571Z,15.21
2022-10-20T16:18:18.858Z,14.96
2022-10-20T16:21:08.072Z,14.92
2022-10-20T16:23:55.651Z,14.75
2022-10-20T16:26:44.644Z,14.52
2022-10-20T16:29:32.244Z,14.57
2022-10-20T16:32:20.211Z,14.58
2022-10-20T16:35:08.651Z,14.52
2022-10-20T16:37:56.654Z,14.46
2022-10-20T16:40:44.290Z,14.45
2022-10-20T16:43:33.606Z,14.42
2022-10-20T16:46:21.429Z,14.37
2022-10-20T16:49:09.136Z,14.21
2022-10-20T16:51:57.235Z,14.24
2022-10-20T16:54:45.029Z,14.19
2022-10-20T16:57:38.659Z,14.08
2022-10-20T17:00:27.797Z,14.00
2022-10-20T17:03:19.523Z,13.95
2022-10-20T17:06:09.856Z,13.93
2022-10-20T17:09:00.618Z,13.89
2022-10-20T17:11:48.307Z,13.92
2022-10-20T17:14:35.759Z,13.86
2022-10-20T17:17:24.580Z,13.82
2022-10-20T17:20:12.767Z,13.75
2022-10-20T17:23:05.361Z,13.70
2022-10-20T17:26:00.843Z,13.66
2022-10-20T17:28:49.569Z,13.60
2022-10-20T17:31:39.204Z,13.55
2022-10-20T17:34:28.559Z,13.51
2022-10-20T17:37:16.109Z,13.46
2022-10-20T17:40:03.819Z,13.42
2022-10-20T17:42:52.186Z,13.39
2022-10-20T17:45:39.755Z,13.34
2022-10-20T17:48:27.961Z,13.31
2022-10-20T17:51:20.507Z,13.28
2022-10-20T17:54:11.051Z,13.23
2022-10-20T17:56:59.436Z,13.20
2022-10-20T17:59:53.327Z,13.17
2022-10-20T18:02:51.793Z,13.13
2022-10-20T18:05:46.450Z,13.10
2022-10-20T18:08:35.869Z,13.07
2022-10-20T18:11:34.804Z,13.04
2022-10-20T18:14:24.420Z,13.01
2022-10-20T18:17:18.182Z,12.95
2022-10-20T18:20:12.912Z,12.90
2022-10-20T18:23:02.165Z,12.86
2022-10-20T18:25:51.387Z,12.86
2022-10-20T18:28:51.068Z,12.83
2022-10-20T18:31:55.950Z,12.79
2022-10-20T18:34:51.984Z,12.78
2022-10-20T18:37:44.741Z,12.75
2022-10-20T18:40:35.081Z,12.72
2022-10-20T18:43:25.581Z,12.67
2022-10-20T18:46:15.409Z,12.68
2022-10-20T18:49:09.911Z,12.69
2022-10-20T18:52:00.621Z,12.66
2022-10-20T18:54:47.977Z,12.65
2022-10-20T18:57:39.353Z,12.63
2022-10-20T19:00:28.731Z,12.61
2022-10-20T19:03:26.217Z,12.56
2022-10-20T19:06:19.557Z,12.54
2022-10-20T19:09:16.545Z,12.49
2022-10-20T19:12:09.654Z,12.47
2022-10-20T19:15:03.675Z,12.41
2022-10-20T19:18:00.765Z,12.40
2022-10-20T19:20:59.518Z,12.36
2022-10-20T19:23:56.481Z,12.33
2022-10-20T19:26:56.760Z,12.30
2022-10-20T19:29:49.863Z,12.34
2022-10-20T19:32:40.394Z,12.34
2022-10-20T19:35:35.433Z,12.31
2022-10-20T19:38:25.355Z,12.28
2022-10-20T19:41:15.876Z,12.26
2022-10-20T19:44:03.683Z,12.25
2022-10-20T19:46:55.368Z,12.24
2022-10-20T19:49:43.343Z,12.21
2022-10-20T19:52:36.641Z,12.19
2022-10-20T19:55:24.438Z,12.21
2022-10-20T19:58:13.972Z,12.18
2022-10-20T20:01:04.042Z,12.15
2022-10-20T20:03:51.861Z,12.15
2022-10-20T20:06:39.693Z,12.12
2022-10-20T20:09:30.026Z,12.10
2022-10-20T20:12:17.594Z,12.10
2022-10-20T20:15:07.801Z,12.09
2022-10-20T20:17:56.620Z,12.07
2022-10-20T20:20:47.155Z,12.07
2022-10-20T20:23:47.710Z,12.05
2022-10-20T20:26:50.163Z,12.03
2022-10-20T20:29:47.693Z,12.02
2022-10-20T20:32:37.110Z,12.01
2022-10-20T20:35:28.391Z,11.98
2022-10-20T20:38:19.243Z,11.96
2022-10-20T20:41:15.898Z,11.96
2022-10-20T20:44:10.094Z,11.93
2022-10-20T20:46:58.522Z,11.93
2022-10-20T20:49:53.686Z,11.92
2022-10-20T20:52:44.212Z,11.89
2022-10-20T20:55:40.919Z,11.88
2022-10-20T20:58:30.476Z,11.86
2022-10-20T21:01:24.978Z,11.84
2022-10-20T21:04:13.059Z,11.84
2022-10-20T21:07:02.479Z,11.81
2022-10-20T21:09:50.464Z,11.77
2022-10-20T21:12:41.355Z,11.77
2022-10-20T21:15:47.720Z,11.77
2022-10-20T21:22:30.996Z,11.76
2022-10-20T21:26:09.511Z,11.74
2022-10-20T21:29:02.403Z,11.71
2022-10-20T21:32:02.535Z,11.69
2022-10-20T21:35:20.795Z,11.72
2022-10-20T21:38:51.116Z,11.68
2022-10-20T21:41:50.056Z,11.64
2022-10-20T21:45:31.302Z,11.63
2022-10-20T21:48:19.356Z,11.65
2022-10-20T21:51:14.856Z,11.62
2022-10-20T21:54:05.496Z,11.62
2022-10-20T21:57:01.765Z,11.61
2022-10-20T21:59:50.563Z,11.57
2022-10-20T22:02:38.449Z,11.55
2022-10-20T22:05:25.978Z,11.52
2022-10-20T22:08:14.954Z,11.50
2022-10-20T22:11:08.077Z,11.48
2022-10-20T22:13:56.344Z,11.47
2022-10-20T22:16:44.628Z,11.44
2022-10-20T22:19:31.941Z,11.43
2022-10-20T22:22:19.374Z,11.41
2022-10-20T22:25:09.955Z,11.39
2022-10-20T22:27:57.420Z,11.37
2022-10-20T22:30:44.731Z,11.36
2022-10-20T22:33:32.426Z,11.37
2022-10-20T22:36:20.915Z,11.35
2022-10-20T22:39:09.619Z,11.34
2022-10-20T22:41:58.725Z,11.35
2022-10-20T22:44:47.802Z,11.36
2022-10-20T22:47:35.070Z,11.35
2022-10-20T22:50:22.706Z,11.36
2022-10-20T22:53:10.760Z,11.35
2022-10-20T22:56:06.554Z,11.34
2022-10-20T22:58:55.732Z,11.37
2022-10-20T23:01:45.547Z,11.37
2022-10-20T23:04:32.883Z,11.38
2022-10-20T23:07:20.391Z,11.36
2022-10-20T23:10:12.779Z,11.35
2022-10-20T23:13:00.252Z,11.34
2022-10-20T23:15:53.187Z,11.33
2022-10-20T23:18:41.376Z,11.33
2022-10-20T23:21:29.240Z,11.32
2022-10-20T23:24:16.932Z,11.31
2022-10-20T23:27:04.608Z,11.31
2022-10-20T23:29:52.289Z,11.29
2022-10-20T23:32:41.095Z,11.28
2022-10-20T23:35:29.039Z,11.25
2022-10-20T23:38:16.424Z,11.23
2022-10-20T23:41:04.292Z,11.20
2022-10-20T23:43:51.611Z,11.20
2022-10-20T23:46:39.100Z,11.18
2022-10-20T23:49:27.953Z,11.16
2022-10-20T23:52:15.599Z,11.16
2022-10-20T23:55:04.310Z,11.16
2022-10-20T23:57:51.948Z,11.16
